Time;durP1;ratioP1;P1;durP2;ratioP2;P2;SDS_P1;SDS_P2;PMS_P1;PMS_P2;Temp;Humidity;BMP_temperature;BMP_pressure;BME280_temperature;BME280_humidity;BME280_pressure;Samples;Min_cycle;Max_cycle;Signal;HPM_P1;HPM_P2
2022/02/08 00:00:18;;;;;;;15.33;3.37;;;7.00;99.90;;;;;;5078394;22;20044;-86
2022/02/08 00:02:49;;;;;;;15.33;3.50;;;6.90;99.90;;;;;;5057230;28;20033;-86
2022/02/08 00:05:17;;;;;;;10.90;3.07;;;6.90;99.90;;;;;;5057017;28;20035;-86
2022/02/08 00:07:47;;;;;;;17.20;3.60;;;6.90;99.90;;;;;;5039416;28;20508;-86
2022/02/08 00:10:13;;;;;;;16.50;3.23;;;6.90;99.90;;;;;;5039042;28;20040;-86
2022/02/08 00:12:39;;;;;;;15.00;3.63;;;6.80;99.90;;;;;;5057185;28;20024;-86
2022/02/08 00:15:06;;;;;;;13.83;3.03;;;6.80;99.90;;;;;;5056864;28;20029;-86
2022/02/08 00:17:32;;;;;;;15.40;3.50;;;6.90;99.90;;;;;;5039172;28;20492;-86
2022/02/08 00:20:00;;;;;;;14.73;3.70;;;6.90;99.90;;;;;;5057228;28;20025;-86
2022/02/08 00:22:26;;;;;;;13.27;3.70;;;6.80;99.90;;;;;;5057128;28;20033;-86
2022/02/08 00:24:53;;;;;;;18.70;4.27;;;6.90;99.90;;;;;;5056961;28;20055;-86
2022/02/08 00:27:19;;;;;;;17.93;3.67;;;6.90;99.90;;;;;;5057223;28;20031;-86
2022/02/08 00:29:45;;;;;;;15.47;3.07;;;6.80;99.90;;;;;;5054156;28;20033;-86
2022/02/08 00:32:11;;;;;;;17.03;3.00;;;6.80;99.90;;;;;;5053955;28;20025;-86
2022/02/08 00:34:36;;;;;;;11.33;2.60;;;6.90;99.90;;;;;;5035795;28;20045;-86
2022/02/08 00:37:02;;;;;;;14.27;3.13;;;6.80;99.90;;;;;;5035641;28;20029;-86
2022/02/08 00:39:32;;;;;;;14.40;3.37;;;6.90;99.90;;;;;;5053853;28;20025;-86
2022/02/08 00:42:09;;;;;;;13.87;2.73;;;6.80;99.90;;;;;;5035667;28;20040;-86
2022/02/08 00:44:53;;;;;;;13.90;2.80;;;6.90;99.90;;;;;;5035863;28;20033;-86
2022/02/08 00:47:32;;;;;;;14.40;3.00;;;6.80;99.90;;;;;;5053570;28;20040;-86
2022/02/08 00:50:06;;;;;;;10.97;2.80;;;6.90;99.90;;;;;;5053499;28;20029;-86
2022/02/08 00:52:38;;;;;;;10.43;2.37;;;6.90;99.90;;;;;;5035514;28;20025;-86
2022/02/08 00:55:07;;;;;;;13.87;3.40;;;6.80;99.90;;;;;;5035495;28;20110;-86
2022/02/08 00:57:34;;;;;;;16.13;3.30;;;6.80;99.90;;;;;;5053550;28;20025;-86
2022/02/08 01:00:00;;;;;;;15.40;3.50;;;6.80;99.90;;;;;;5035518;28;20132;-86
2022/02/08 01:02:26;;;;;;;17.63;3.97;;;6.90;99.90;;;;;;5019243;28;20112;-86
2022/02/08 01:04:55;;;;;;;14.73;3.23;;;6.90;99.90;;;;;;5035483;28;20040;-86
2022/02/08 01:07:22;;;;;;;12.70;3.83;;;6.90;99.90;;;;;;5053390;28;20037;-86
2022/02/08 01:10:00;;;;;;;19.50;5.27;;;7.00;99.90;;;;;;5035547;28;20036;-86
2022/02/08 01:12:28;;;;;;;20.87;3.80;;;6.90;99.90;;;;;;5035595;28;20508;-86
2022/02/08 01:14:56;;;;;;;19.73;4.03;;;6.90;99.90;;;;;;5053212;28;20057;-86
2022/02/08 01:17:24;;;;;;;19.83;4.57;;;6.90;99.90;;;;;;5035292;28;20028;-86
2022/02/08 01:20:17;;;;;;;21.17;5.07;;;7.00;99.90;;;;;;5035293;28;20025;-86
2022/02/08 01:22:40;;;;;;;21.63;5.57;;;7.00;99.90;;;;;;5052623;28;20037;-86
2022/02/08 01:25:12;;;;;;;19.33;4.97;;;7.10;99.90;;;;;;5035131;28;20139;-86
2022/02/08 01:27:46;;;;;;;24.60;6.73;;;7.00;99.90;;;;;;5018853;28;20033;-86
2022/02/08 01:30:26;;;;;;;22.17;6.33;;;7.00;99.90;;;;;;5035201;28;20029;-86
2022/02/08 01:33:21;;;;;;;20.00;5.47;;;6.90;99.90;;;;;;5053117;28;20025;-86
2022/02/08 01:38:19;;;;;;;25.90;5.50;;;6.90;99.90;;;;;;5034909;28;20037;-86
2022/02/08 01:46:25;;;;;;;21.07;5.80;;;6.90;99.90;;;;;;5052765;28;20036;-86
2022/02/08 01:48:58;;;;;;;26.57;6.20;;;6.80;99.90;;;;;;5034489;28;20033;-86
2022/02/08 01:51:24;;;;;;;25.67;5.93;;;6.80;99.90;;;;;;5034637;28;20116;-85
2022/02/08 01:53:51;;;;;;;25.03;6.37;;;6.80;99.90;;;;;;5017764;28;20033;-86
2022/02/08 01:56:17;;;;;;;24.17;5.63;;;6.80;99.90;;;;;;5034601;28;20021;-86
2022/02/08 01:58:43;;;;;;;17.80;5.20;;;6.80;99.90;;;;;;5034274;28;20396;-85
2022/02/08 02:01:26;;;;;;;18.20;5.50;;;6.80;99.90;;;;;;5034324;28;20079;-86
2022/02/08 02:03:52;;;;;;;22.57;5.60;;;6.70;99.90;;;;;;5034330;28;20509;-86
2022/02/08 02:06:18;;;;;;;24.47;5.63;;;6.80;99.90;;;;;;5034474;28;20146;-85
2022/02/08 02:08:44;;;;;;;22.80;5.50;;;6.80;99.90;;;;;;5034084;28;20592;-85
2022/02/08 02:11:10;;;;;;;19.83;5.03;;;6.80;99.90;;;;;;5034202;28;20127;-86
2022/02/08 02:13:42;;;;;;;18.47;4.97;;;6.70;99.90;;;;;;5033862;28;20045;-86
2022/02/08 02:16:16;;;;;;;19.93;6.23;;;6.70;99.90;;;;;;5018267;28;20039;-86
2022/02/08 02:18:44;;;;;;;23.17;5.90;;;6.70;99.90;;;;;;5034140;28;20023;-86
2022/02/08 02:21:11;;;;;;;21.63;6.13;;;6.70;99.90;;;;;;5034036;28;20079;-86
2022/02/08 02:23:37;;;;;;;22.10;5.90;;;6.70;99.90;;;;;;5033884;28;20581;-86
2022/02/08 02:26:03;;;;;;;20.30;6.90;;;6.70;99.90;;;;;;5034011;28;20029;-86
2022/02/08 02:28:31;;;;;;;25.43;7.63;;;6.70;99.90;;;;;;5033725;28;20040;-86
2022/02/08 02:30:58;;;;;;;19.60;7.03;;;6.70;99.90;;;;;;5034124;28;20394;-86
2022/02/08 02:33:24;;;;;;;23.30;6.50;;;6.70;99.90;;;;;;5033538;28;20036;-86
2022/02/08 02:35:50;;;;;;;20.20;6.17;;;6.70;99.90;;;;;;5017320;28;20032;-86
2022/02/08 02:38:19;;;;;;;20.27;6.67;;;6.70;99.90;;;;;;5033780;28;20036;-86
2022/02/08 02:40:47;;;;;;;23.83;6.43;;;6.70;99.90;;;;;;5033740;28;20029;-86
2022/02/08 02:43:20;;;;;;;26.77;7.17;;;6.70;99.90;;;;;;5033371;28;20028;-85
2022/02/08 02:45:46;;;;;;;28.67;8.10;;;6.70;99.90;;;;;;5033839;28;20029;-86
2022/02/08 02:48:12;;;;;;;24.80;7.93;;;6.60;99.90;;;;;;5033526;28;20036;-86
2022/02/08 02:50:51;;;;;;;23.70;7.77;;;6.60;99.90;;;;;;5033610;28;20025;-86
2022/02/08 02:53:18;;;;;;;20.93;7.93;;;6.60;99.90;;;;;;5032749;28;20021;-86
2022/02/08 02:55:44;;;;;;;25.70;10.10;;;6.60;99.90;;;;;;5051304;28;20090;-86
2022/02/08 02:58:10;;;;;;;21.20;9.20;;;6.60;99.90;;;;;;5033290;28;20494;-85
2022/02/08 03:00:41;;;;;;;21.80;9.70;;;6.60;99.90;;;;;;5033804;28;20417;-86
2022/02/08 03:03:23;;;;;;;19.37;9.70;;;6.70;99.90;;;;;;5033327;28;20029;-86
2022/02/08 03:19:31;;;;;;;26.13;9.27;;;6.60;99.90;;;;;;5050929;28;20469;-86
2022/02/08 03:21:57;;;;;;;20.40;8.70;;;6.70;99.90;;;;;;5016767;28;20033;-86
2022/02/08 03:24:22;;;;;;;24.43;9.53;;;6.70;99.90;;;;;;5033040;28;20112;-86
2022/02/08 03:26:49;;;;;;;21.70;8.67;;;6.70;99.90;;;;;;5033068;28;20039;-86
2022/02/08 03:29:15;;;;;;;22.97;8.80;;;6.70;99.90;;;;;;5033335;28;20115;-86
2022/02/08 03:31:41;;;;;;;17.37;7.37;;;6.70;99.90;;;;;;5033070;28;20048;-86
2022/02/08 03:34:08;;;;;;;17.30;7.63;;;6.70;99.90;;;;;;5032730;28;20033;-86
2022/02/08 03:36:39;;;;;;;15.17;7.93;;;6.80;99.90;;;;;;5032938;28;20029;-86
2022/02/08 03:39:22;;;;;;;20.13;8.43;;;6.80;99.90;;;;;;5032950;28;20029;-86
2022/02/08 03:42:20;;;;;;;18.43;7.40;;;6.80;99.90;;;;;;5033116;28;20033;-86
2022/02/08 03:44:50;;;;;;;15.70;7.47;;;6.80;99.90;;;;;;5032674;28;20098;-86
2022/02/08 03:47:18;;;;;;;18.80;7.63;;;6.80;99.90;;;;;;5032944;28;20424;-86
2022/02/08 03:49:46;;;;;;;18.63;8.53;;;6.90;99.90;;;;;;5032704;28;20037;-87
2022/02/08 03:52:12;;;;;;;18.07;8.43;;;6.90;99.90;;;;;;5033005;28;20029;-86
2022/02/08 03:54:44;;;;;;;15.67;8.57;;;6.90;99.90;;;;;;5032571;28;20499;-86
2022/02/08 03:57:11;;;;;;;20.23;8.77;;;6.90;99.90;;;;;;5050802;28;20029;-86
2022/02/08 03:59:39;;;;;;;16.40;8.80;;;6.90;99.90;;;;;;5032654;28;20137;-86
2022/02/08 04:05:01;;;;;;;17.43;8.13;;;7.00;99.90;;;;;;5051438;28;20037;-86
2022/02/08 04:07:34;;;;;;;19.10;8.37;;;7.00;99.90;;;;;;5054920;28;20354;-86
2022/02/08 04:10:04;;;;;;;15.77;7.70;;;7.00;99.90;;;;;;5054312;28;20029;-86
2022/02/08 04:17:54;;;;;;;16.77;8.30;;;7.10;99.90;;;;;;5054321;28;20248;-86
2022/02/08 04:41:46;;;;;;;16.02;7.90;;;7.10;99.90;;;;;;5053849;28;20120;-86
2022/02/08 04:49:12;;;;;;;19.88;8.73;;;7.20;99.90;;;;;;5053737;28;20048;-86
2022/02/08 04:51:47;;;;;;;19.27;9.23;;;7.20;99.90;;;;;;5053666;28;20037;-86
2022/02/08 04:54:26;;;;;;;17.60;8.70;;;7.30;99.90;;;;;;5053414;28;20485;-86
2022/02/08 05:46:47;;;;;;;9.27;5.33;;;7.60;99.90;;;;;;5052770;28;20041;-86
2022/02/08 05:49:03;;;;;;;10.43;5.43;;;7.60;99.90;;;;;;5050824;28;20044;-86
2022/02/08 05:54:14;;;;;;;15.00;8.93;;;7.70;99.90;;;;;;5052324;28;20033;-86
2022/02/08 05:56:39;;;;;;;11.83;6.70;;;7.70;99.90;;;;;;5034875;28;20509;-86
2022/02/08 05:59:10;;;;;;;12.27;6.83;;;7.80;99.90;;;;;;5064904;22;20048;-85
2022/02/08 06:01:36;;;;;;;10.03;5.93;;;7.70;99.90;;;;;;5034581;28;20051;-85
2022/02/08 06:04:12;;;;;;;10.77;6.47;;;7.70;99.90;;;;;;5034225;28;20025;-85
2022/02/08 06:06:38;;;;;;;9.77;5.87;;;7.70;99.90;;;;;;5052755;28;20033;-85
2022/02/08 06:09:04;;;;;;;12.13;6.00;;;7.80;99.90;;;;;;5051969;28;20025;-85
2022/02/08 06:11:36;;;;;;;12.53;6.33;;;7.70;99.90;;;;;;5052030;28;20112;-86
2022/02/08 06:14:05;;;;;;;12.23;6.37;;;7.70;99.90;;;;;;5033849;28;20059;-85
2022/02/08 06:16:32;;;;;;;10.97;6.60;;;7.70;99.90;;;;;;5033959;28;20493;-86
2022/02/08 06:18:58;;;;;;;11.83;6.70;;;7.70;99.90;;;;;;5034055;28;20108;-86
2022/02/08 06:21:24;;;;;;;9.93;7.07;;;7.70;99.90;;;;;;5051860;28;20116;-85
2022/02/08 06:23:50;;;;;;;11.87;7.30;;;7.70;99.90;;;;;;5033798;28;20086;-86
2022/02/08 06:26:16;;;;;;;13.90;7.97;;;7.70;99.90;;;;;;5034054;28;20485;-85
2022/02/08 06:28:44;;;;;;;12.30;7.50;;;7.70;99.90;;;;;;5034235;28;20025;-86
2022/02/08 06:31:10;;;;;;;12.50;7.50;;;7.80;99.90;;;;;;5033911;28;20029;-86
2022/02/08 06:33:36;;;;;;;13.03;7.33;;;7.80;99.90;;;;;;5033459;28;20033;-86
2022/02/08 06:36:02;;;;;;;12.90;7.83;;;7.80;99.90;;;;;;5051651;28;20025;-85
2022/02/08 06:38:28;;;;;;;16.63;8.83;;;7.80;99.90;;;;;;5033479;28;20037;-85
2022/02/08 06:40:55;;;;;;;14.40;8.63;;;7.80;99.90;;;;;;5033762;28;20036;-85
2022/02/08 06:43:22;;;;;;;15.70;10.40;;;7.80;99.90;;;;;;5034169;28;20511;-85
2022/02/08 06:45:48;;;;;;;15.03;9.57;;;7.90;99.90;;;;;;5051683;28;20021;-85
2022/02/08 06:48:14;;;;;;;14.00;8.87;;;7.80;99.90;;;;;;5051713;28;20059;-85
2022/02/08 06:50:40;;;;;;;15.13;8.57;;;7.80;99.90;;;;;;5051872;28;20040;-85
2022/02/08 06:53:06;;;;;;;16.80;8.47;;;7.90;99.90;;;;;;5033496;28;20131;-86
2022/02/08 06:55:32;;;;;;;12.60;8.07;;;7.90;99.90;;;;;;5051129;28;20028;-85
2022/02/08 06:58:04;;;;;;;16.03;8.17;;;7.90;99.90;;;;;;5051316;28;20166;-86
2022/02/08 07:00:36;;;;;;;14.57;8.20;;;7.90;99.90;;;;;;5051267;28;20517;-86
2022/02/08 07:03:04;;;;;;;14.37;8.40;;;7.80;99.90;;;;;;5033453;28;20044;-86
2022/02/08 07:05:30;;;;;;;16.30;9.43;;;7.80;99.90;;;;;;5034370;28;20524;-88
2022/02/08 07:07:58;;;;;;;15.90;9.30;;;7.80;99.90;;;;;;5017215;28;20087;-88
2022/02/08 07:10:27;;;;;;;16.90;9.20;;;7.90;99.90;;;;;;5051345;28;20073;-88
2022/02/08 07:12:55;;;;;;;14.63;8.73;;;7.80;99.90;;;;;;5051096;28;20025;-86
2022/02/08 07:15:21;;;;;;;14.60;8.87;;;7.90;99.90;;;;;;5033052;28;20086;-87
2022/02/08 07:17:47;;;;;;;13.47;8.13;;;7.80;99.90;;;;;;5051907;28;20082;-87
2022/02/08 07:20:14;;;;;;;13.40;8.00;;;7.90;99.90;;;;;;5033205;28;20583;-87
2022/02/08 07:22:40;;;;;;;14.73;8.33;;;7.90;99.90;;;;;;5033272;28;20493;-87
2022/02/08 07:25:07;;;;;;;13.97;9.33;;;7.90;99.90;;;;;;5050663;28;20062;-87
2022/02/08 07:27:33;;;;;;;12.37;8.53;;;7.90;99.90;;;;;;5050984;28;20036;-87
2022/02/08 07:30:09;;;;;;;13.80;7.43;;;7.90;99.90;;;;;;5050745;28;20074;-87
2022/02/08 07:32:39;;;;;;;12.03;6.43;;;7.80;99.90;;;;;;5051779;28;20040;-87
2022/02/08 07:37:50;;;;;;;11.73;6.83;;;7.90;99.90;;;;;;5050858;28;20546;-87
2022/02/08 07:41:34;;;;;;;11.87;6.90;;;7.90;99.90;;;;;;5054220;28;20025;-87
2022/02/08 07:43:16;;;;;;;11.23;6.68;;;7.90;99.90;;;;;;5054535;28;20025;-87
2022/02/08 07:46:06;;;;;;;12.43;7.27;;;8.00;99.90;;;;;;5036979;28;20393;-87
2022/02/08 07:48:32;;;;;;;9.65;6.32;;;8.10;99.90;;;;;;5054783;28;20029;-87
2022/02/08 07:50:58;;;;;;;14.50;7.33;;;8.10;99.90;;;;;;5036980;28;20051;-87
2022/02/08 07:53:27;;;;;;;14.50;7.60;;;8.10;99.90;;;;;;5054373;28;20481;-87
2022/02/08 07:55:55;;;;;;;12.85;8.02;;;8.10;99.90;;;;;;5054895;28;20029;-87
2022/02/08 07:58:21;;;;;;;14.83;8.37;;;8.10;99.90;;;;;;5054537;28;20497;-86
2022/02/08 08:00:47;;;;;;;13.03;8.33;;;8.00;99.90;;;;;;5036667;28;20043;-87
2022/02/08 08:03:14;;;;;;;14.90;9.90;;;8.10;99.90;;;;;;5054094;28;20021;-87
2022/02/08 08:05:40;;;;;;;16.97;9.30;;;8.20;99.90;;;;;;5054550;28;20106;-87
2022/02/08 08:08:07;;;;;;;18.97;9.70;;;8.10;99.90;;;;;;5054307;28;20025;-87
2022/02/08 08:10:33;;;;;;;17.47;10.70;;;8.20;99.90;;;;;;5054582;28;20053;-86
2022/02/08 08:13:02;;;;;;;17.43;10.60;;;8.20;99.90;;;;;;5020257;28;20040;-87
2022/02/08 08:17:58;;;;;;;21.70;11.87;;;8.40;99.90;;;;;;5054196;28;20025;-87
2022/02/08 08:20:24;;;;;;;17.50;10.97;;;8.30;99.90;;;;;;5054039;28;20759;-87
2022/02/08 08:22:50;;;;;;;19.23;11.43;;;8.40;99.90;;;;;;5036435;28;20025;-87
2022/02/08 08:25:16;;;;;;;20.77;11.73;;;8.50;99.90;;;;;;5036173;28;20056;-87
2022/02/08 08:27:42;;;;;;;24.17;11.80;;;8.40;99.90;;;;;;5036449;28;20063;-87
2022/02/08 08:30:09;;;;;;;25.13;13.33;;;8.40;99.90;;;;;;5053934;28;20127;-87
2022/02/08 08:32:40;;;;;;;22.70;12.57;;;8.40;99.90;;;;;;5053991;28;20025;-87
2022/02/08 08:35:09;;;;;;;25.60;13.07;;;8.40;99.90;;;;;;5053422;28;20044;-87
2022/02/08 08:37:40;;;;;;;;;;;8.50;99.90;;;;;;5054348;28;20067;-87
2022/02/08 08:40:17;;;;;;;26.27;12.87;;;8.50;99.90;;;;;;5053663;28;19909;-87
2022/02/08 08:42:54;;;;;;;21.13;12.50;;;8.50;99.90;;;;;;5053816;28;20025;-87
2022/02/08 08:51:02;;;;;;;24.17;12.50;;;8.70;99.90;;;;;;5034765;28;20112;-87
2022/02/08 08:53:29;;;;;;;21.93;13.07;;;8.70;99.90;;;;;;5053283;28;20033;-87
2022/02/08 08:55:55;;;;;;;27.37;12.87;;;8.70;99.90;;;;;;5053161;28;20481;-87
2022/02/08 08:58:21;;;;;;;23.80;12.83;;;8.70;99.90;;;;;;5035651;28;20040;-87
2022/02/08 09:00:47;;;;;;;22.63;12.60;;;8.70;99.90;;;;;;5053488;28;20033;-87
2022/02/08 09:03:13;;;;;;;22.97;13.17;;;8.80;99.90;;;;;;5053118;28;20388;-87
2022/02/08 09:05:39;;;;;;;25.47;12.53;;;8.80;99.90;;;;;;5053268;28;20485;-87
2022/02/08 09:08:05;;;;;;;22.73;12.67;;;8.80;99.90;;;;;;5035321;28;20055;-87
2022/02/08 09:10:41;;;;;;;21.27;12.07;;;8.70;99.90;;;;;;5018977;28;20040;-87
2022/02/08 09:21:39;;;;;;;20.17;10.67;;;8.90;99.90;;;;;;5053022;28;20466;-87
2022/02/08 09:29:37;;;;;;;22.57;11.53;;;9.00;99.90;;;;;;5052782;28;20036;-87
2022/02/08 09:32:13;;;;;;;21.03;11.23;;;9.00;99.90;;;;;;5053086;28;20037;-87
2022/02/08 09:34:41;;;;;;;18.70;10.70;;;9.00;99.90;;;;;;5034905;28;20095;-86
2022/02/08 09:37:12;;;;;;;18.40;10.07;;;9.00;99.90;;;;;;5052684;28;20424;-87
2022/02/08 09:39:38;;;;;;;18.20;9.90;;;9.10;99.90;;;;;;5034601;28;20120;-86
2022/02/08 09:42:06;;;;;;;21.17;10.40;;;9.10;99.90;;;;;;5052731;28;20021;-86
2022/02/08 09:44:34;;;;;;;18.60;9.57;;;9.10;99.90;;;;;;5018249;28;20452;-87
2022/02/08 09:47:01;;;;;;;17.47;9.77;;;9.10;99.90;;;;;;5018173;28;20041;-87
2022/02/08 09:49:29;;;;;;;18.10;9.30;;;9.20;99.90;;;;;;5034600;28;20086;-87
2022/02/08 09:51:56;;;;;;;16.20;8.57;;;9.10;99.90;;;;;;5034786;28;20382;-87
2022/02/08 09:54:22;;;;;;;18.20;8.20;;;9.20;99.90;;;;;;5052005;28;20033;-86
2022/02/08 09:56:48;;;;;;;18.17;8.47;;;9.20;99.90;;;;;;5034590;28;20489;-87
2022/02/08 09:59:14;;;;;;;15.93;7.73;;;9.20;99.90;;;;;;5052078;28;20446;-87
2022/02/08 10:01:52;;;;;;;14.97;7.57;;;9.30;99.90;;;;;;5034355;28;20029;-87
2022/02/08 10:04:18;;;;;;;16.53;8.10;;;9.30;99.90;;;;;;5052072;28;20029;-87
2022/02/08 10:06:43;;;;;;;13.97;7.63;;;9.30;99.90;;;;;;5052155;28;20090;-87
2022/02/08 10:09:09;;;;;;;18.40;7.63;;;9.30;99.90;;;;;;5052078;28;20032;-87
2022/02/08 10:11:50;;;;;;;13.50;7.13;;;9.40;99.90;;;;;;5052230;28;20523;-87
2022/02/08 10:22:30;;;;;;;15.27;6.37;;;9.40;99.90;;;;;;5052033;28;20096;-87
2022/02/08 10:25:10;;;;;;;11.93;6.32;;;9.40;99.90;;;;;;5051689;28;20035;-87
2022/02/08 10:27:40;;;;;;;13.48;6.32;;;9.40;99.90;;;;;;5033989;28;20041;-87
2022/02/08 10:38:47;;;;;;;12.17;5.50;;;9.60;99.90;;;;;;5051593;28;20116;-87
2022/02/08 10:41:18;;;;;;;12.00;5.47;;;9.60;99.90;;;;;;5033826;28;20676;-86
2022/02/08 10:43:59;;;;;;;15.30;5.80;;;9.60;99.90;;;;;;5033549;28;20436;-87
2022/02/08 10:46:25;;;;;;;19.10;6.93;;;9.60;99.90;;;;;;5051512;28;20029;-87
2022/02/08 10:49:12;;;;;;;12.70;6.00;;;9.60;99.90;;;;;;5051544;28;20048;-87
2022/02/08 10:54:16;;;;;;;14.73;5.47;;;9.60;99.90;;;;;;5051070;28;20040;-87
2022/02/08 10:56:49;;;;;;;14.27;5.57;;;9.60;99.90;;;;;;5051328;28;20033;-87
2022/02/08 10:59:23;;;;;;;13.17;5.70;;;9.60;99.90;;;;;;5033302;28;20044;-87
2022/02/08 11:02:03;;;;;;;12.43;6.03;;;9.60;99.90;;;;;;5033571;28;20025;-87
2022/02/08 11:04:45;;;;;;;11.43;4.97;;;9.60;99.90;;;;;;5033144;28;20374;-87
2022/02/08 11:07:26;;;;;;;14.17;5.63;;;9.70;99.90;;;;;;5033276;28;20099;-87
2022/02/08 11:12:56;;;;;;;13.03;5.37;;;9.70;99.90;;;;;;5051182;28;20057;-87
2022/02/08 11:15:41;;;;;;;11.03;4.20;;;9.70;99.90;;;;;;5050504;28;20516;-87
2022/02/08 11:21:23;;;;;;;8.73;4.10;;;9.70;99.90;;;;;;5051063;28;20036;-87
2022/02/08 11:24:01;;;;;;;12.73;3.83;;;9.80;99.90;;;;;;5050644;28;20029;-86
2022/02/08 11:26:35;;;;;;;12.40;4.30;;;9.80;99.90;;;;;;5033268;28;20029;-87
2022/02/08 11:29:16;;;;;;;10.77;4.10;;;9.80;99.90;;;;;;5050977;28;20017;-87
2022/02/08 11:31:48;;;;;;;11.63;3.93;;;9.90;99.90;;;;;;5050933;28;20029;-87
2022/02/08 11:46:23;;;;;;;11.53;4.03;;;9.80;99.90;;;;;;5050799;28;20600;-87
2022/02/08 11:52:17;;;;;;;14.77;4.53;;;10.00;99.90;;;;;;5050737;28;20435;-87
2022/02/08 11:58:11;;;;;;;12.03;3.43;;;10.00;99.90;;;;;;5050483;28;20022;-87
2022/02/08 12:00:46;;;;;;;9.47;2.97;;;10.10;99.90;;;;;;5063676;22;20053;-84
2022/02/08 12:06:05;;;;;;;8.70;2.70;;;10.20;99.90;;;;;;5050540;28;20120;-84
2022/02/08 12:08:31;;;;;;;10.73;3.00;;;10.20;99.90;;;;;;5032756;28;20033;-84
2022/02/08 12:35:31;;;;;;;15.33;3.83;;;10.30;99.90;;;;;;5053779;28;20175;-85
2022/02/08 12:57:53;;;;;;;11.13;2.50;;;10.40;99.90;;;;;;5053643;28;20036;-84
2022/02/08 13:00:43;;;;;;;13.40;2.20;;;10.40;99.90;;;;;;5053527;28;20056;-85
2022/02/08 13:03:25;;;;;;;7.87;2.40;;;10.40;99.90;;;;;;5053602;28;20035;-84
2022/02/08 14:13:53;;;;;;;10.20;2.53;;;10.50;99.90;;;;;;5051848;28;20532;-85
2022/02/08 14:34:43;;;;;;;8.10;2.20;;;10.50;99.90;;;;;;5051523;28;20549;-85
2022/02/08 15:09:05;;;;;;;9.57;2.10;;;10.70;99.90;;;;;;5051093;28;20082;-85
2022/02/08 15:11:46;;;;;;;8.07;2.20;;;10.70;99.90;;;;;;5051112;28;20025;-85
2022/02/08 15:14:12;;;;;;;7.97;2.33;;;10.70;99.90;;;;;;5050886;28;20507;-85
2022/02/08 15:16:37;;;;;;;8.83;2.07;;;10.70;99.90;;;;;;5051391;28;20029;-84
2022/02/08 15:19:04;;;;;;;11.37;2.33;;;10.70;99.90;;;;;;5033165;28;20045;-85
2022/02/08 15:21:33;;;;;;;9.97;2.30;;;10.60;99.90;;;;;;5051059;28;20688;-85
2022/02/08 15:24:01;;;;;;;7.88;1.95;;;10.70;99.90;;;;;;5051054;28;20400;-85
2022/02/08 15:26:27;;;;;;;10.30;2.05;;;10.70;99.90;;;;;;5051216;28;20040;-85
2022/02/08 15:28:54;;;;;;;8.07;2.10;;;10.60;99.90;;;;;;5051020;28;20031;-85
2022/02/08 15:31:20;;;;;;;9.33;1.60;;;10.60;99.90;;;;;;5051595;28;20056;-85
2022/02/08 15:33:46;;;;;;;8.37;1.60;;;10.70;99.90;;;;;;5033124;28;20064;-85
2022/02/08 15:36:15;;;;;;;11.03;2.50;;;10.60;99.90;;;;;;5050862;28;20131;-85
2022/02/08 15:38:50;;;;;;;8.97;2.10;;;10.60;99.90;;;;;;5050504;28;20408;-85
2022/02/08 15:41:17;;;;;;;7.23;1.93;;;10.50;99.90;;;;;;5050654;28;20037;-85
2022/02/08 15:43:43;;;;;;;7.77;1.77;;;10.60;99.90;;;;;;5016436;28;20634;-85
2022/02/08 15:46:22;;;;;;;8.17;1.70;;;10.50;99.90;;;;;;5033667;28;20097;-84
2022/02/08 15:48:49;;;;;;;6.45;1.77;;;10.60;99.90;;;;;;5050994;28;20070;-85
2022/02/08 15:54:03;;;;;;;4.57;1.40;;;10.60;99.90;;;;;;5033729;28;20048;-85
2022/02/08 15:56:38;;;;;;;5.97;1.63;;;10.60;99.90;;;;;;5050668;28;20037;-85
2022/02/08 16:07:10;;;;;;;6.57;2.13;;;10.50;99.90;;;;;;5054441;28;20033;-85
2022/02/08 16:09:43;;;;;;;6.40;2.00;;;10.50;99.90;;;;;;5054475;28;20063;-85
2022/02/08 16:30:15;;;;;;;11.67;4.53;;;10.40;99.90;;;;;;5053845;28;20036;-85
2022/02/08 16:59:23;;;;;;;9.33;3.73;;;10.30;99.90;;;;;;5053204;28;20478;-84
2022/02/08 17:01:49;;;;;;;7.90;3.37;;;10.30;99.90;;;;;;5053368;28;20029;-84
2022/02/08 17:04:15;;;;;;;8.77;3.10;;;10.40;99.90;;;;;;5053284;28;20397;-84
2022/02/08 17:06:41;;;;;;;6.80;3.03;;;10.40;99.90;;;;;;5053279;28;20482;-84
2022/02/08 17:09:13;;;;;;;7.10;3.33;;;10.30;99.90;;;;;;5053271;28;20029;-84
2022/02/08 17:16:54;;;;;;;8.03;3.50;;;10.30;99.90;;;;;;5053000;28;20045;-84
2022/02/08 17:46:33;;;;;;;6.00;2.17;;;10.10;99.90;;;;;;5034326;28;20029;-84
2022/02/08 17:48:58;;;;;;;8.20;1.80;;;10.10;99.90;;;;;;5052083;28;20025;-84
2022/02/08 17:51:24;;;;;;;5.97;1.80;;;10.10;99.90;;;;;;5034383;28;20032;-84
2022/02/08 17:53:50;;;;;;;9.10;1.87;;;10.10;99.90;;;;;;5034113;28;20071;-84
2022/02/08 17:56:16;;;;;;;7.83;2.73;;;10.10;99.90;;;;;;5052226;28;20032;-84
2022/02/08 17:58:44;;;;;;;8.10;2.37;;;10.10;99.90;;;;;;5051941;28;20417;-84
2022/02/08 18:01:10;;;;;;;8.07;2.50;;;10.20;99.90;;;;;;5145819;22;20504;-71
2022/02/08 18:03:35;;;;;;;6.70;2.43;;;10.20;99.90;;;;;;5052144;28;20024;-71
2022/02/08 18:06:01;;;;;;;6.87;2.30;;;10.10;99.90;;;;;;5052036;28;20091;-71
2022/02/08 18:08:28;;;;;;;7.47;2.73;;;10.20;99.90;;;;;;5052295;28;20078;-71
2022/02/08 18:10:58;;;;;;;9.03;2.43;;;10.20;99.90;;;;;;5017832;28;20025;-71
2022/02/08 18:13:28;;;;;;;6.50;2.63;;;10.10;99.90;;;;;;5033965;28;20119;-71
2022/02/08 18:15:53;;;;;;;6.37;2.50;;;10.10;99.90;;;;;;5051771;28;20029;-71
2022/02/08 18:20:51;;;;;;;8.87;2.70;;;10.10;99.90;;;;;;5051819;28;20036;-71
2022/02/08 18:55:59;;;;;;;7.40;2.80;;;10.20;99.90;;;;;;5051249;28;20084;-71
2022/02/08 19:22:02;;;;;;;8.53;2.20;;;10.10;99.90;;;;;;5051205;28;20045;-71
2022/02/08 19:24:28;;;;;;;4.30;2.13;;;10.10;99.90;;;;;;5050735;28;20036;-71
2022/02/08 19:26:58;;;;;;;7.33;2.30;;;10.10;99.90;;;;;;5050852;28;20444;-71
2022/02/08 19:29:26;;;;;;;7.13;2.27;;;10.10;99.90;;;;;;5050711;28;20046;-71
2022/02/08 19:31:53;;;;;;;7.30;2.40;;;10.10;99.90;;;;;;5051028;28;20037;-71
2022/02/08 19:34:20;;;;;;;8.30;2.57;;;10.00;99.90;;;;;;5050840;28;20075;-71
2022/02/08 19:36:46;;;;;;;8.73;3.43;;;10.10;99.90;;;;;;5054911;28;20560;-71
2022/02/08 19:39:14;;;;;;;6.93;2.50;;;10.10;99.90;;;;;;5036874;28;20040;-70
2022/02/08 19:41:40;;;;;;;8.20;2.97;;;10.10;99.90;;;;;;5054825;28;20075;-71
2022/02/08 19:44:07;;;;;;;8.47;3.90;;;10.10;99.90;;;;;;5054728;28;20060;-70
2022/02/08 19:46:34;;;;;;;8.43;3.73;;;10.00;99.90;;;;;;5054934;28;20512;-71
2022/02/08 19:49:00;;;;;;;9.37;2.87;;;10.00;99.90;;;;;;5054804;28;20032;-71
2022/02/08 19:51:27;;;;;;;8.50;3.27;;;10.00;99.90;;;;;;5054857;28;20055;-71
2022/02/08 19:53:55;;;;;;;6.60;2.57;;;10.10;99.90;;;;;;5054611;28;20489;-71
2022/02/08 19:56:28;;;;;;;8.13;3.30;;;10.00;99.90;;;;;;5054851;28;20032;-71
2022/02/08 19:58:57;;;;;;;10.43;4.30;;;10.10;99.90;;;;;;5054400;28;20039;-71
2022/02/08 20:01:29;;;;;;;9.43;3.50;;;10.10;99.90;;;;;;5054314;28;20037;-71
2022/02/08 20:04:01;;;;;;;13.27;4.40;;;10.10;99.90;;;;;;5036361;28;20068;-71
2022/02/08 20:06:28;;;;;;;12.60;3.27;;;10.00;99.90;;;;;;5054840;28;20037;-71
2022/02/08 20:08:54;;;;;;;7.07;3.00;;;10.10;99.90;;;;;;5054051;28;20546;-71
2022/02/08 20:11:22;;;;;;;9.43;2.90;;;10.10;99.90;;;;;;5054379;28;20063;-71
2022/02/08 20:13:56;;;;;;;7.37;2.93;;;10.10;99.90;;;;;;5054088;28;20504;-71
2022/02/08 20:16:25;;;;;;;5.97;2.93;;;10.10;99.90;;;;;;5054494;28;20086;-71
2022/02/08 20:18:54;;;;;;;8.40;2.17;;;10.00;99.90;;;;;;5054133;28;20031;-71
2022/02/08 20:21:24;;;;;;;5.15;1.73;;;10.10;99.90;;;;;;5036078;28;20055;-71
2022/02/08 20:23:52;;;;;;;7.17;2.00;;;10.00;99.90;;;;;;5036083;28;20036;-71
2022/02/08 20:26:21;;;;;;;6.73;1.87;;;10.00;99.90;;;;;;5036111;28;20079;-71
2022/02/08 20:31:14;;;;;;;7.20;1.97;;;10.00;99.90;;;;;;5054055;28;20028;-71
2022/02/08 20:33:40;;;;;;;7.07;2.17;;;9.90;99.90;;;;;;5053777;28;20258;-71
2022/02/08 20:36:06;;;;;;;6.53;2.00;;;10.00;99.90;;;;;;5053885;28;20037;-71
2022/02/08 20:38:33;;;;;;;5.07;1.90;;;9.90;99.90;;;;;;5035922;28;20519;-71
2022/02/08 20:40:59;;;;;;;6.10;1.93;;;10.00;99.90;;;;;;5035961;28;20058;-71
2022/02/08 20:43:28;;;;;;;7.40;2.23;;;10.00;99.90;;;;;;5053522;28;20025;-70
2022/02/08 20:45:54;;;;;;;5.68;2.05;;;10.10;99.90;;;;;;5052948;28;20033;-71
2022/02/08 20:48:25;;;;;;;8.77;2.40;;;10.00;99.90;;;;;;5053137;28;20043;-71
2022/02/08 20:50:53;;;;;;;8.40;2.90;;;10.00;99.90;;;;;;5053662;28;20487;-71
2022/02/08 20:53:34;;;;;;;8.30;3.13;;;10.10;99.90;;;;;;5053388;28;20037;-71
2022/02/08 20:56:10;;;;;;;8.37;2.90;;;10.10;99.90;;;;;;5053421;28;20124;-70
2022/02/08 20:58:51;;;;;;;7.63;3.00;;;10.10;99.90;;;;;;5053460;28;20420;-71
2022/02/08 21:01:21;;;;;;;9.53;2.93;;;10.10;99.90;;;;;;5053543;28;20032;-71
2022/02/08 21:03:54;;;;;;;6.30;2.53;;;10.00;99.90;;;;;;5035473;28;20477;-70
2022/02/08 21:06:22;;;;;;;8.20;2.87;;;10.00;99.90;;;;;;5035622;28;20033;-70
2022/02/08 21:08:49;;;;;;;5.57;2.63;;;9.90;99.90;;;;;;5053265;28;20033;-70